sensor_id;sensor_type;location;lat;lon;timestamp;P1;durP1;ratioP1;P2;durP2;ratioP2
11865;SDS011;5992;52.744;6.898;2023-06-10T00:00:20;3.60;;;3.30;;
11865;SDS011;5992;52.744;6.898;2023-06-10T00:03:33;5.10;;;3.70;;
11865;SDS011;5992;52.744;6.898;2023-06-10T00:06:46;7.83;;;3.67;;
11865;SDS011;5992;52.744;6.898;2023-06-10T00:09:59;7.03;;;3.70;;
11865;SDS011;5992;52.744;6.898;2023-06-10T00:13:10;3.93;;;3.37;;
11865;SDS011;5992;52.744;6.898;2023-06-10T00:16:22;3.83;;;3.33;;
11865;SDS011;5992;52.744;6.898;2023-06-10T00:19:23;5.83;;;3.80;;
11865;SDS011;5992;52.744;6.898;2023-06-10T00:22:48;3.83;;;3.43;;
11865;SDS011;5992;52.744;6.898;2023-06-10T00:25:48;3.97;;;3.50;;
11865;SDS011;5992;52.744;6.898;2023-06-10T00:29:00;5.00;;;3.20;;
11865;SDS011;5992;52.744;6.898;2023-06-10T00:32:12;4.53;;;3.30;;
11865;SDS011;5992;52.744;6.898;2023-06-10T00:35:25;4.67;;;3.03;;
11865;SDS011;5992;52.744;6.898;2023-06-10T00:38:38;6.17;;;3.60;;
11865;SDS011;5992;52.744;6.898;2023-06-10T00:41:51;6.63;;;3.50;;
11865;SDS011;5992;52.744;6.898;2023-06-10T00:44:51;6.50;;;3.93;;
11865;SDS011;5992;52.744;6.898;2023-06-10T00:48:15;4.13;;;3.70;;
11865;SDS011;5992;52.744;6.898;2023-06-10T00:51:16;6.07;;;3.97;;
11865;SDS011;5992;52.744;6.898;2023-06-10T00:54:41;6.57;;;4.03;;
11865;SDS011;5992;52.744;6.898;2023-06-10T00:57:54;5.83;;;3.53;;
11865;SDS011;5992;52.744;6.898;2023-06-10T01:01:18;5.83;;;3.90;;
11865;SDS011;5992;52.744;6.898;2023-06-10T01:04:18;6.67;;;4.70;;
11865;SDS011;5992;52.744;6.898;2023-06-10T01:07:33;9.03;;;4.60;;
11865;SDS011;5992;52.744;6.898;2023-06-10T01:10:47;15.10;;;4.27;;
11865;SDS011;5992;52.744;6.898;2023-06-10T01:14:09;7.40;;;4.33;;
11865;SDS011;5992;52.744;6.898;2023-06-10T01:17:09;6.97;;;4.10;;
11865;SDS011;5992;52.744;6.898;2023-06-10T01:20:21;7.33;;;3.87;;
11865;SDS011;5992;52.744;6.898;2023-06-10T01:23:22;4.67;;;3.60;;
11865;SDS011;5992;52.744;6.898;2023-06-10T01:26:46;7.40;;;4.03;;
11865;SDS011;5992;52.744;6.898;2023-06-10T01:29:59;6.17;;;4.03;;
11865;SDS011;5992;52.744;6.898;2023-06-10T01:33:25;5.50;;;3.80;;
11865;SDS011;5992;52.744;6.898;2023-06-10T01:36:47;7.13;;;4.27;;
11865;SDS011;5992;52.744;6.898;2023-06-10T01:40:12;8.60;;;4.50;;
11865;SDS011;5992;52.744;6.898;2023-06-10T01:43:24;8.75;;;4.00;;
11865;SDS011;5992;52.744;6.898;2023-06-10T01:46:37;7.13;;;3.67;;
11865;SDS011;5992;52.744;6.898;2023-06-10T01:49:37;7.67;;;3.67;;
11865;SDS011;5992;52.744;6.898;2023-06-10T01:52:49;8.30;;;4.07;;
11865;SDS011;5992;52.744;6.898;2023-06-10T01:55:50;20.77;;;4.83;;
11865;SDS011;5992;52.744;6.898;2023-06-10T01:59:15;6.53;;;3.93;;
11865;SDS011;5992;52.744;6.898;2023-06-10T02:02:27;8.77;;;4.47;;
11865;SDS011;5992;52.744;6.898;2023-06-10T02:05:39;8.27;;;3.80;;
11865;SDS011;5992;52.744;6.898;2023-06-10T02:08:39;7.57;;;4.27;;
11865;SDS011;5992;52.744;6.898;2023-06-10T02:11:52;5.67;;;4.27;;
11865;SDS011;5992;52.744;6.898;2023-06-10T02:15:18;6.77;;;4.23;;
11865;SDS011;5992;52.744;6.898;2023-06-10T02:18:30;8.73;;;4.53;;
11865;SDS011;5992;52.744;6.898;2023-06-10T02:21:30;7.53;;;4.90;;
11865;SDS011;5992;52.744;6.898;2023-06-10T02:24:42;5.73;;;4.50;;
11865;SDS011;5992;52.744;6.898;2023-06-10T02:27:45;10.15;;;4.40;;
11865;SDS011;5992;52.744;6.898;2023-06-10T02:31:09;9.27;;;5.03;;
11865;SDS011;5992;52.744;6.898;2023-06-10T02:34:21;8.40;;;4.83;;
11865;SDS011;5992;52.744;6.898;2023-06-10T02:37:33;6.30;;;4.50;;
11865;SDS011;5992;52.744;6.898;2023-06-10T02:40:45;11.47;;;5.17;;
11865;SDS011;5992;52.744;6.898;2023-06-10T02:43:59;10.33;;;4.90;;
11865;SDS011;5992;52.744;6.898;2023-06-10T02:47:23;11.70;;;5.23;;
11865;SDS011;5992;52.744;6.898;2023-06-10T02:50:35;7.33;;;4.93;;
11865;SDS011;5992;52.744;6.898;2023-06-10T02:53:47;9.33;;;5.47;;
11865;SDS011;5992;52.744;6.898;2023-06-10T02:56:59;8.13;;;5.17;;
11865;SDS011;5992;52.744;6.898;2023-06-10T03:00:13;10.20;;;5.83;;
11865;SDS011;5992;52.744;6.898;2023-06-10T03:03:37;7.23;;;5.23;;
11865;SDS011;5992;52.744;6.898;2023-06-10T03:06:49;9.83;;;4.93;;
11865;SDS011;5992;52.744;6.898;2023-06-10T03:10:01;8.07;;;4.73;;
11865;SDS011;5992;52.744;6.898;2023-06-10T03:13:13;9.10;;;4.57;;
11865;SDS011;5992;52.744;6.898;2023-06-10T03:16:28;7.23;;;5.20;;
11865;SDS011;5992;52.744;6.898;2023-06-10T03:19:52;9.07;;;5.50;;
11865;SDS011;5992;52.744;6.898;2023-06-10T03:23:04;8.97;;;5.27;;
11865;SDS011;5992;52.744;6.898;2023-06-10T03:26:28;8.95;;;4.70;;
11865;SDS011;5992;52.744;6.898;2023-06-10T03:29:41;6.60;;;4.05;;
11865;SDS011;5992;52.744;6.898;2023-06-10T03:32:55;6.47;;;4.67;;
11865;SDS011;5992;52.744;6.898;2023-06-10T03:36:20;7.33;;;4.63;;
11865;SDS011;5992;52.744;6.898;2023-06-10T03:39:32;12.47;;;5.17;;
11865;SDS011;5992;52.744;6.898;2023-06-10T03:42:44;10.30;;;4.47;;
11865;SDS011;5992;52.744;6.898;2023-06-10T03:45:56;9.43;;;5.27;;
11865;SDS011;5992;52.744;6.898;2023-06-10T03:49:22;7.15;;;4.90;;
11865;SDS011;5992;52.744;6.898;2023-06-10T03:52:45;5.87;;;4.33;;
11865;SDS011;5992;52.744;6.898;2023-06-10T03:55:58;8.57;;;4.90;;
11865;SDS011;5992;52.744;6.898;2023-06-10T03:59:10;6.83;;;4.23;;
11865;SDS011;5992;52.744;6.898;2023-06-10T04:02:22;4.70;;;3.93;;
11865;SDS011;5992;52.744;6.898;2023-06-10T04:05:36;12.85;;;5.00;;
11865;SDS011;5992;52.744;6.898;2023-06-10T04:08:49;5.50;;;4.00;;
11865;SDS011;5992;52.744;6.898;2023-06-10T04:12:02;5.30;;;3.63;;
11865;SDS011;5992;52.744;6.898;2023-06-10T04:15:14;5.80;;;3.87;;
11865;SDS011;5992;52.744;6.898;2023-06-10T04:18:38;7.43;;;4.17;;
11865;SDS011;5992;52.744;6.898;2023-06-10T04:21:42;6.10;;;3.73;;
11865;SDS011;5992;52.744;6.898;2023-06-10T04:25:09;8.63;;;4.73;;
11865;SDS011;5992;52.744;6.898;2023-06-10T04:28:33;8.53;;;4.20;;
11865;SDS011;5992;52.744;6.898;2023-06-10T04:31:45;8.43;;;3.70;;
11865;SDS011;5992;52.744;6.898;2023-06-10T04:34:59;5.53;;;3.60;;
11865;SDS011;5992;52.744;6.898;2023-06-10T04:38:23;7.70;;;4.30;;
11865;SDS011;5992;52.744;6.898;2023-06-10T04:41:48;8.10;;;4.40;;
11865;SDS011;5992;52.744;6.898;2023-06-10T04:45:00;8.17;;;4.10;;
11865;SDS011;5992;52.744;6.898;2023-06-10T04:48:13;8.30;;;3.70;;
11865;SDS011;5992;52.744;6.898;2023-06-10T04:51:26;4.90;;;3.33;;
11865;SDS011;5992;52.744;6.898;2023-06-10T04:54:39;8.77;;;4.60;;
11865;SDS011;5992;52.744;6.898;2023-06-10T04:58:04;9.57;;;4.17;;
11865;SDS011;5992;52.744;6.898;2023-06-10T05:01:04;4.80;;;3.70;;
11865;SDS011;5992;52.744;6.898;2023-06-10T05:04:16;5.27;;;3.33;;
11865;SDS011;5992;52.744;6.898;2023-06-10T05:07:16;6.50;;;3.83;;
11865;SDS011;5992;52.744;6.898;2023-06-10T05:10:29;7.67;;;4.03;;
11865;SDS011;5992;52.744;6.898;2023-06-10T05:13:42;7.13;;;3.90;;
11865;SDS011;5992;52.744;6.898;2023-06-10T05:17:06;6.97;;;3.83;;
11865;SDS011;5992;52.744;6.898;2023-06-10T05:20:06;7.87;;;4.17;;
11865;SDS011;5992;52.744;6.898;2023-06-10T05:23:19;6.23;;;3.73;;
11865;SDS011;5992;52.744;6.898;2023-06-10T05:26:36;12.53;;;3.63;;
11865;SDS011;5992;52.744;6.898;2023-06-10T05:30:01;8.60;;;4.17;;
11865;SDS011;5992;52.744;6.898;2023-06-10T05:33:01;8.07;;;4.20;;
11865;SDS011;5992;52.744;6.898;2023-06-10T05:36:14;5.60;;;3.33;;
11865;SDS011;5992;52.744;6.898;2023-06-10T05:39:14;9.73;;;4.50;;
11865;SDS011;5992;52.744;6.898;2023-06-10T05:42:27;6.90;;;3.73;;
11865;SDS011;5992;52.744;6.898;2023-06-10T05:45:39;12.47;;;4.33;;
11865;SDS011;5992;52.744;6.898;2023-06-10T05:48:51;6.47;;;3.70;;
11865;SDS011;5992;52.744;6.898;2023-06-10T05:51:51;5.67;;;3.63;;
11865;SDS011;5992;52.744;6.898;2023-06-10T05:55:05;5.37;;;3.33;;
11865;SDS011;5992;52.744;6.898;2023-06-10T05:58:18;6.13;;;3.60;;
11865;SDS011;5992;52.744;6.898;2023-06-10T06:01:47;5.87;;;4.33;;
11865;SDS011;5992;52.744;6.898;2023-06-10T06:05:00;5.50;;;4.20;;
11865;SDS011;5992;52.744;6.898;2023-06-10T06:08:00;6.27;;;3.40;;
11865;SDS011;5992;52.744;6.898;2023-06-10T06:11:26;7.70;;;3.63;;
11865;SDS011;5992;52.744;6.898;2023-06-10T06:14:30;3.83;;;3.30;;
11865;SDS011;5992;52.744;6.898;2023-06-10T06:17:56;7.45;;;3.40;;
11865;SDS011;5992;52.744;6.898;2023-06-10T06:20:56;8.25;;;3.75;;
11865;SDS011;5992;52.744;6.898;2023-06-10T06:24:08;8.63;;;3.83;;
11865;SDS011;5992;52.744;6.898;2023-06-10T06:27:08;5.50;;;3.80;;
11865;SDS011;5992;52.744;6.898;2023-06-10T06:30:22;8.63;;;4.13;;
11865;SDS011;5992;52.744;6.898;2023-06-10T06:33:34;7.00;;;4.20;;
11865;SDS011;5992;52.744;6.898;2023-06-10T06:36:47;7.13;;;3.77;;
11865;SDS011;5992;52.744;6.898;2023-06-10T06:39:59;4.10;;;3.30;;
11865;SDS011;5992;52.744;6.898;2023-06-10T06:43:11;7.00;;;3.70;;
11865;SDS011;5992;52.744;6.898;2023-06-10T06:46:25;8.05;;;3.40;;
11865;SDS011;5992;52.744;6.898;2023-06-10T06:49:49;6.30;;;3.63;;
11865;SDS011;5992;52.744;6.898;2023-06-10T06:52:49;7.30;;;3.80;;
11865;SDS011;5992;52.744;6.898;2023-06-10T06:56:01;6.33;;;3.50;;
11865;SDS011;5992;52.744;6.898;2023-06-10T06:59:01;6.17;;;4.60;;
11865;SDS011;5992;52.744;6.898;2023-06-10T07:02:15;8.00;;;4.30;;
11865;SDS011;5992;52.744;6.898;2023-06-10T07:05:28;5.43;;;3.70;;
11865;SDS011;5992;52.744;6.898;2023-06-10T07:08:40;5.00;;;3.30;;
11865;SDS011;5992;52.744;6.898;2023-06-10T07:11:40;5.90;;;3.40;;
11865;SDS011;5992;52.744;6.898;2023-06-10T07:14:53;6.65;;;3.70;;
11865;SDS011;5992;52.744;6.898;2023-06-10T07:17:54;5.03;;;3.37;;
11865;SDS011;5992;52.744;6.898;2023-06-10T07:21:19;7.10;;;3.73;;
11865;SDS011;5992;52.744;6.898;2023-06-10T07:24:19;5.53;;;3.10;;
11865;SDS011;5992;52.744;6.898;2023-06-10T07:27:31;6.63;;;3.70;;
11865;SDS011;5992;52.744;6.898;2023-06-10T07:30:31;8.83;;;3.90;;
11865;SDS011;5992;52.744;6.898;2023-06-10T07:33:45;5.75;;;3.55;;
11865;SDS011;5992;52.744;6.898;2023-06-10T07:36:58;6.10;;;4.07;;
11865;SDS011;5992;52.744;6.898;2023-06-10T07:40:10;6.70;;;3.70;;
11865;SDS011;5992;52.744;6.898;2023-06-10T07:43:22;6.90;;;3.67;;
11865;SDS011;5992;52.744;6.898;2023-06-10T07:46:34;5.90;;;3.50;;
11865;SDS011;5992;52.744;6.898;2023-06-10T07:49:35;5.30;;;3.20;;
11865;SDS011;5992;52.744;6.898;2023-06-10T07:53:00;6.00;;;3.30;;
11865;SDS011;5992;52.744;6.898;2023-06-10T07:56:00;6.83;;;3.73;;
11865;SDS011;5992;52.744;6.898;2023-06-10T07:59:13;4.93;;;3.13;;
11865;SDS011;5992;52.744;6.898;2023-06-10T08:02:25;8.97;;;3.97;;
11865;SDS011;5992;52.744;6.898;2023-06-10T08:05:43;7.47;;;4.27;;
11865;SDS011;5992;52.744;6.898;2023-06-10T08:08:55;7.00;;;4.33;;
11865;SDS011;5992;52.744;6.898;2023-06-10T08:12:07;5.17;;;3.23;;
11865;SDS011;5992;52.744;6.898;2023-06-10T08:15:09;5.15;;;4.00;;
11865;SDS011;5992;52.744;6.898;2023-06-10T08:18:21;6.80;;;4.63;;
11865;SDS011;5992;52.744;6.898;2023-06-10T08:21:23;5.65;;;4.50;;
11865;SDS011;5992;52.744;6.898;2023-06-10T08:24:51;8.20;;;4.60;;
11865;SDS011;5992;52.744;6.898;2023-06-10T08:28:03;7.05;;;4.95;;
11865;SDS011;5992;52.744;6.898;2023-06-10T08:34:15;7.90;;;4.80;;
11865;SDS011;5992;52.744;6.898;2023-06-10T09:45:48;5.50;;;4.30;;
11865;SDS011;5992;52.744;6.898;2023-06-10T09:49:00;6.60;;;3.97;;
11865;SDS011;5992;52.744;6.898;2023-06-10T09:52:12;5.28;;;4.30;;
11865;SDS011;5992;52.744;6.898;2023-06-10T09:55:13;5.07;;;3.87;;
11865;SDS011;5992;52.744;6.898;2023-06-10T09:58:33;4.60;;;3.50;;
11865;SDS011;5992;52.744;6.898;2023-06-10T10:01:47;3.70;;;3.40;;
11865;SDS011;5992;52.744;6.898;2023-06-10T10:05:11;4.93;;;3.53;;
11865;SDS011;5992;52.744;6.898;2023-06-10T10:08:23;4.05;;;3.22;;
11865;SDS011;5992;52.744;6.898;2023-06-10T10:11:38;10.27;;;4.25;;
11865;SDS011;5992;52.744;6.898;2023-06-10T10:14:38;4.77;;;3.53;;
11865;SDS011;5992;52.744;6.898;2023-06-10T10:18:05;4.35;;;3.20;;
11865;SDS011;5992;52.744;6.898;2023-06-10T10:21:16;2.90;;;2.60;;
11865;SDS011;5992;52.744;6.898;2023-06-10T10:24:40;4.82;;;3.30;;
11865;SDS011;5992;52.744;6.898;2023-06-10T10:27:54;3.90;;;3.20;;
11865;SDS011;5992;52.744;6.898;2023-06-10T10:31:16;3.60;;;3.25;;
11865;SDS011;5992;52.744;6.898;2023-06-10T10:34:30;3.13;;;2.60;;
11865;SDS011;5992;52.744;6.898;2023-06-10T10:37:54;2.70;;;2.50;;
11865;SDS011;5992;52.744;6.898;2023-06-10T10:41:06;3.00;;;2.37;;
11865;SDS011;5992;52.744;6.898;2023-06-10T10:44:31;3.23;;;2.60;;
11865;SDS011;5992;52.744;6.898;2023-06-10T10:47:43;5.80;;;3.05;;
11865;SDS011;5992;52.744;6.898;2023-06-10T10:51:08;6.40;;;2.80;;
11865;SDS011;5992;52.744;6.898;2023-06-10T10:54:21;5.10;;;2.67;;
11865;SDS011;5992;52.744;6.898;2023-06-10T10:57:53;3.92;;;2.50;;
11865;SDS011;5992;52.744;6.898;2023-06-10T11:01:10;8.65;;;2.70;;
11865;SDS011;5992;52.744;6.898;2023-06-10T11:04:34;3.15;;;2.85;;
11865;SDS011;5992;52.744;6.898;2023-06-10T11:07:35;3.33;;;2.65;;
11865;SDS011;5992;52.744;6.898;2023-06-10T11:11:00;2.50;;;2.40;;
11865;SDS011;5992;52.744;6.898;2023-06-10T11:14:12;4.50;;;2.80;;
11865;SDS011;5992;52.744;6.898;2023-06-10T11:17:24;2.53;;;2.12;;
11865;SDS011;5992;52.744;6.898;2023-06-10T11:23:52;3.15;;;2.67;;
11865;SDS011;5992;52.744;6.898;2023-06-10T11:27:14;3.75;;;2.90;;
11865;SDS011;5992;52.744;6.898;2023-06-10T11:30:39;2.95;;;2.70;;
11865;SDS011;5992;52.744;6.898;2023-06-10T11:33:52;3.62;;;2.28;;
11865;SDS011;5992;52.744;6.898;2023-06-10T11:37:15;2.62;;;2.40;;
11865;SDS011;5992;52.744;6.898;2023-06-10T11:40:31;2.55;;;2.35;;
11865;SDS011;5992;52.744;6.898;2023-06-10T11:43:55;4.75;;;2.40;;
11865;SDS011;5992;52.744;6.898;2023-06-10T11:47:08;3.35;;;2.80;;
11865;SDS011;5992;52.744;6.898;2023-06-10T11:50:32;2.60;;;2.40;;
11865;SDS011;5992;52.744;6.898;2023-06-10T11:53:47;2.92;;;2.65;;
11865;SDS011;5992;52.744;6.898;2023-06-10T11:57:12;3.25;;;2.55;;
11865;SDS011;5992;52.744;6.898;2023-06-10T12:00:27;3.55;;;3.22;;
11865;SDS011;5992;52.744;6.898;2023-06-10T12:03:58;3.15;;;2.30;;
11865;SDS011;5992;52.744;6.898;2023-06-10T12:07:16;9.30;;;2.90;;
11865;SDS011;5992;52.744;6.898;2023-06-10T12:10:40;2.65;;;2.33;;
11865;SDS011;5992;52.744;6.898;2023-06-10T12:13:53;4.20;;;2.35;;
11865;SDS011;5992;52.744;6.898;2023-06-10T12:17:18;2.80;;;2.30;;
11865;SDS011;5992;52.744;6.898;2023-06-10T12:20:25;2.50;;;2.30;;
11865;SDS011;5992;52.744;6.898;2023-06-10T12:24:00;3.30;;;2.40;;
11865;SDS011;5992;52.744;6.898;2023-06-10T12:27:12;4.37;;;2.12;;
11865;SDS011;5992;52.744;6.898;2023-06-10T12:30:27;5.30;;;2.30;;
11865;SDS011;5992;52.744;6.898;2023-06-10T12:33:39;2.50;;;2.30;;
11865;SDS011;5992;52.744;6.898;2023-06-10T12:36:51;2.80;;;2.60;;
11865;SDS011;5992;52.744;6.898;2023-06-10T12:39:51;8.15;;;2.30;;
11865;SDS011;5992;52.744;6.898;2023-06-10T12:43:05;2.15;;;2.05;;
11865;SDS011;5992;52.744;6.898;2023-06-10T12:46:18;2.92;;;2.62;;
11865;SDS011;5992;52.744;6.898;2023-06-10T12:49:42;5.03;;;2.50;;
11865;SDS011;5992;52.744;6.898;2023-06-10T12:52:42;3.55;;;2.70;;
11865;SDS011;5992;52.744;6.898;2023-06-10T12:55:54;2.53;;;2.33;;
11865;SDS011;5992;52.744;6.898;2023-06-10T12:58:54;4.47;;;2.75;;
11865;SDS011;5992;52.744;6.898;2023-06-10T13:02:07;4.85;;;3.00;;
11865;SDS011;5992;52.744;6.898;2023-06-10T13:05:19;3.10;;;2.90;;
11865;SDS011;5992;52.744;6.898;2023-06-10T13:08:44;2.90;;;2.70;;
11865;SDS011;5992;52.744;6.898;2023-06-10T13:11:44;2.97;;;2.75;;
11865;SDS011;5992;52.744;6.898;2023-06-10T13:14:57;2.85;;;2.65;;
11865;SDS011;5992;52.744;6.898;2023-06-10T13:17:58;2.70;;;2.50;;
11865;SDS011;5992;52.744;6.898;2023-06-10T13:21:23;3.20;;;2.90;;
11865;SDS011;5992;52.744;6.898;2023-06-10T13:24:23;3.35;;;2.40;;
11865;SDS011;5992;52.744;6.898;2023-06-10T13:27:35;4.15;;;3.00;;
11865;SDS011;5992;52.744;6.898;2023-06-10T13:30:47;2.80;;;2.60;;
11865;SDS011;5992;52.744;6.898;2023-06-10T13:34:00;2.87;;;2.67;;
11865;SDS011;5992;52.744;6.898;2023-06-10T13:37:13;4.32;;;2.97;;
11865;SDS011;5992;52.744;6.898;2023-06-10T13:40:25;2.65;;;2.45;;
11865;SDS011;5992;52.744;6.898;2023-06-10T13:43:25;4.72;;;3.00;;
11865;SDS011;5992;52.744;6.898;2023-06-10T13:46:37;3.30;;;3.10;;
11865;SDS011;5992;52.744;6.898;2023-06-10T13:49:39;4.95;;;2.97;;
11865;SDS011;5992;52.744;6.898;2023-06-10T13:53:02;3.85;;;3.50;;
11865;SDS011;5992;52.744;6.898;2023-06-10T13:56:02;3.35;;;3.08;;
11865;SDS011;5992;52.744;6.898;2023-06-10T13:59:15;3.50;;;3.10;;
11865;SDS011;5992;52.744;6.898;2023-06-10T14:02:15;3.42;;;3.10;;
11865;SDS011;5992;52.744;6.898;2023-06-10T14:05:29;3.65;;;3.35;;
11865;SDS011;5992;52.744;6.898;2023-06-10T14:08:40;3.40;;;3.10;;
11865;SDS011;5992;52.744;6.898;2023-06-10T14:11:52;3.45;;;3.00;;
11865;SDS011;5992;52.744;6.898;2023-06-10T14:14:52;3.28;;;3.08;;
11865;SDS011;5992;52.744;6.898;2023-06-10T14:18:04;3.17;;;2.87;;
11865;SDS011;5992;52.744;6.898;2023-06-10T14:21:06;4.05;;;2.75;;
11865;SDS011;5992;52.744;6.898;2023-06-10T14:24:30;3.17;;;2.83;;
11865;SDS011;5992;52.744;6.898;2023-06-10T14:27:30;3.80;;;2.85;;
11865;SDS011;5992;52.744;6.898;2023-06-10T14:30:42;4.22;;;3.00;;
11865;SDS011;5992;52.744;6.898;2023-06-10T14:33:42;3.17;;;2.85;;
11865;SDS011;5992;52.744;6.898;2023-06-10T14:36:56;3.20;;;2.70;;
11865;SDS011;5992;52.744;6.898;2023-06-10T14:40:08;3.05;;;2.65;;
11865;SDS011;5992;52.744;6.898;2023-06-10T14:43:21;2.73;;;2.53;;
11865;SDS011;5992;52.744;6.898;2023-06-10T14:46:21;4.68;;;2.83;;
11865;SDS011;5992;52.744;6.898;2023-06-10T14:49:46;4.80;;;3.35;;
11865;SDS011;5992;52.744;6.898;2023-06-10T14:52:49;3.23;;;2.80;;
11865;SDS011;5992;52.744;6.898;2023-06-10T14:56:13;3.00;;;2.78;;
11865;SDS011;5992;52.744;6.898;2023-06-10T14:59:13;2.65;;;2.50;;
11865;SDS011;5992;52.744;6.898;2023-06-10T15:02:25;2.50;;;2.30;;
11865;SDS011;5992;52.744;6.898;2023-06-10T15:05:26;3.97;;;2.67;;
11865;SDS011;5992;52.744;6.898;2023-06-10T15:08:42;2.63;;;2.43;;
11865;SDS011;5992;52.744;6.898;2023-06-10T15:11:54;4.18;;;2.67;;
11865;SDS011;5992;52.744;6.898;2023-06-10T15:15:10;2.08;;;1.98;;
11865;SDS011;5992;52.744;6.898;2023-06-10T15:18:10;3.05;;;2.75;;
11865;SDS011;5992;52.744;6.898;2023-06-10T15:21:35;4.95;;;2.67;;
11865;SDS011;5992;52.744;6.898;2023-06-10T15:24:38;4.93;;;3.70;;
11865;SDS011;5992;52.744;6.898;2023-06-10T15:28:03;2.40;;;2.30;;
11865;SDS011;5992;52.744;6.898;2023-06-10T15:31:03;2.62;;;2.42;;
11865;SDS011;5992;52.744;6.898;2023-06-10T15:34:27;2.80;;;2.60;;
11865;SDS011;5992;52.744;6.898;2023-06-10T15:37:27;3.45;;;2.30;;
11865;SDS011;5992;52.744;6.898;2023-06-10T15:40:41;3.00;;;2.60;;
11865;SDS011;5992;52.744;6.898;2023-06-10T15:43:54;2.20;;;2.08;;
11865;SDS011;5992;52.744;6.898;2023-06-10T15:47:18;3.22;;;2.87;;
11865;SDS011;5992;52.744;6.898;2023-06-10T15:50:30;2.80;;;2.60;;
11865;SDS011;5992;52.744;6.898;2023-06-10T15:53:43;3.47;;;3.20;;
11865;SDS011;5992;52.744;6.898;2023-06-10T15:56:44;2.97;;;2.58;;
11865;SDS011;5992;52.744;6.898;2023-06-10T16:00:09;2.72;;;2.53;;
11865;SDS011;5992;52.744;6.898;2023-06-10T16:03:22;3.42;;;2.70;;
11865;SDS011;5992;52.744;6.898;2023-06-10T16:06:22;3.78;;;2.60;;
11865;SDS011;5992;52.744;6.898;2023-06-10T16:09:35;4.05;;;2.70;;
11865;SDS011;5992;52.744;6.898;2023-06-10T16:12:36;4.45;;;2.53;;
11865;SDS011;5992;52.744;6.898;2023-06-10T16:16:02;4.25;;;2.53;;
11865;SDS011;5992;52.744;6.898;2023-06-10T16:19:02;2.85;;;2.47;;
11865;SDS011;5992;52.744;6.898;2023-06-10T16:22:14;3.50;;;2.45;;
11865;SDS011;5992;52.744;6.898;2023-06-10T16:25:26;3.65;;;2.60;;
11865;SDS011;5992;52.744;6.898;2023-06-10T16:28:39;2.70;;;2.17;;
11865;SDS011;5992;52.744;6.898;2023-06-10T16:31:52;2.47;;;2.20;;
11865;SDS011;5992;52.744;6.898;2023-06-10T16:35:05;2.80;;;2.60;;
11865;SDS011;5992;52.744;6.898;2023-06-10T16:38:06;3.03;;;2.60;;
11865;SDS011;5992;52.744;6.898;2023-06-10T16:41:19;3.00;;;2.62;;
11865;SDS011;5992;52.744;6.898;2023-06-10T16:44:20;4.07;;;2.92;;
11865;SDS011;5992;52.744;6.898;2023-06-10T16:47:46;3.20;;;3.00;;
11865;SDS011;5992;52.744;6.898;2023-06-10T16:50:46;2.95;;;2.35;;
11865;SDS011;5992;52.744;6.898;2023-06-10T16:53:59;3.92;;;2.83;;
11865;SDS011;5992;52.744;6.898;2023-06-10T16:56:59;7.35;;;2.72;;
11865;SDS011;5992;52.744;6.898;2023-06-10T17:00:14;3.05;;;2.72;;
11865;SDS011;5992;52.744;6.898;2023-06-10T17:03:26;2.60;;;2.40;;
11865;SDS011;5992;52.744;6.898;2023-06-10T17:06:38;3.80;;;2.95;;
11865;SDS011;5992;52.744;6.898;2023-06-10T17:09:39;2.60;;;2.40;;
11865;SDS011;5992;52.744;6.898;2023-06-10T17:12:51;6.55;;;2.80;;
11865;SDS011;5992;52.744;6.898;2023-06-10T17:15:52;7.82;;;2.85;;
11865;SDS011;5992;52.744;6.898;2023-06-10T17:19:17;3.85;;;2.50;;
11865;SDS011;5992;52.744;6.898;2023-06-10T17:22:29;4.35;;;2.95;;
11865;SDS011;5992;52.744;6.898;2023-06-10T17:25:41;2.28;;;2.17;;
11865;SDS011;5992;52.744;6.898;2023-06-10T17:28:41;5.22;;;2.60;;
11865;SDS011;5992;52.744;6.898;2023-06-10T17:31:57;3.42;;;3.12;;
11865;SDS011;5992;52.744;6.898;2023-06-10T17:35:10;3.73;;;2.87;;
11865;SDS011;5992;52.744;6.898;2023-06-10T17:38:34;2.97;;;2.77;;
11865;SDS011;5992;52.744;6.898;2023-06-10T17:41:34;3.42;;;3.08;;
11865;SDS011;5992;52.744;6.898;2023-06-10T17:44:46;7.90;;;3.40;;
11865;SDS011;5992;52.744;6.898;2023-06-10T17:47:47;5.28;;;2.85;;
11865;SDS011;5992;52.744;6.898;2023-06-10T17:51:12;4.90;;;3.13;;
11865;SDS011;5992;52.744;6.898;2023-06-10T17:54:12;6.80;;;2.80;;
11865;SDS011;5992;52.744;6.898;2023-06-10T17:57:24;4.57;;;3.53;;
11865;SDS011;5992;52.744;6.898;2023-06-10T18:00:24;5.15;;;3.20;;
11865;SDS011;5992;52.744;6.898;2023-06-10T18:03:49;3.42;;;2.80;;
11865;SDS011;5992;52.744;6.898;2023-06-10T18:07:01;3.35;;;3.05;;
11865;SDS011;5992;52.744;6.898;2023-06-10T18:10:13;5.60;;;4.30;;
11865;SDS011;5992;52.744;6.898;2023-06-10T18:13:14;3.60;;;3.30;;
11865;SDS011;5992;52.744;6.898;2023-06-10T18:16:38;4.80;;;3.40;;
11865;SDS011;5992;52.744;6.898;2023-06-10T18:19:39;3.92;;;2.90;;
11865;SDS011;5992;52.744;6.898;2023-06-10T18:23:04;6.68;;;4.30;;
11865;SDS011;5992;52.744;6.898;2023-06-10T18:26:04;3.42;;;3.10;;
11865;SDS011;5992;52.744;6.898;2023-06-10T18:29:14;3.58;;;3.28;;
11865;SDS011;5992;52.744;6.898;2023-06-10T18:32:26;3.50;;;3.20;;
11865;SDS011;5992;52.744;6.898;2023-06-10T18:35:39;3.60;;;3.30;;
11865;SDS011;5992;52.744;6.898;2023-06-10T18:38:55;5.87;;;3.57;;
11865;SDS011;5992;52.744;6.898;2023-06-10T18:42:07;3.30;;;3.00;;
11865;SDS011;5992;52.744;6.898;2023-06-10T18:45:19;3.65;;;3.35;;
11865;SDS011;5992;52.744;6.898;2023-06-10T18:48:31;3.20;;;2.90;;
11865;SDS011;5992;52.744;6.898;2023-06-10T18:51:32;4.13;;;3.37;;
11865;SDS011;5992;52.744;6.898;2023-06-10T18:54:57;4.28;;;3.40;;
11865;SDS011;5992;52.744;6.898;2023-06-10T18:57:57;3.33;;;3.03;;
11865;SDS011;5992;52.744;6.898;2023-06-10T19:01:09;5.45;;;3.95;;
11865;SDS011;5992;52.744;6.898;2023-06-10T19:04:09;4.00;;;3.60;;
11865;SDS011;5992;52.744;6.898;2023-06-10T19:53:54;6.75;;;4.40;;
11865;SDS011;5992;52.744;6.898;2023-06-10T19:57:18;5.40;;;5.00;;
11865;SDS011;5992;52.744;6.898;2023-06-10T20:00:30;5.03;;;4.53;;
11865;SDS011;5992;52.744;6.898;2023-06-10T20:03:42;13.57;;;12.27;;
11865;SDS011;5992;52.744;6.898;2023-06-10T20:06:54;10.50;;;9.17;;
11865;SDS011;5992;52.744;6.898;2023-06-10T20:10:08;12.17;;;9.30;;
11865;SDS011;5992;52.744;6.898;2023-06-10T20:13:20;8.97;;;6.90;;
11865;SDS011;5992;52.744;6.898;2023-06-10T20:16:32;11.73;;;7.60;;
11865;SDS011;5992;52.744;6.898;2023-06-10T20:19:44;9.67;;;8.13;;
11865;SDS011;5992;52.744;6.898;2023-06-10T20:22:57;8.40;;;7.33;;
11865;SDS011;5992;52.744;6.898;2023-06-10T20:25:59;7.40;;;6.70;;
11865;SDS011;5992;52.744;6.898;2023-06-10T20:29:27;9.73;;;6.83;;
11865;SDS011;5992;52.744;6.898;2023-06-10T20:32:27;10.53;;;5.90;;
11865;SDS011;5992;52.744;6.898;2023-06-10T20:35:40;8.33;;;7.37;;
11865;SDS011;5992;52.744;6.898;2023-06-10T20:38:41;9.55;;;6.15;;
11865;SDS011;5992;52.744;6.898;2023-06-10T20:41:55;10.93;;;6.97;;
11865;SDS011;5992;52.744;6.898;2023-06-10T20:45:08;6.93;;;6.23;;
11865;SDS011;5992;52.744;6.898;2023-06-10T20:48:32;13.33;;;6.00;;
11865;SDS011;5992;52.744;6.898;2023-06-10T20:51:32;7.57;;;6.17;;
11865;SDS011;5992;52.744;6.898;2023-06-10T20:54:44;6.95;;;6.00;;
11865;SDS011;5992;52.744;6.898;2023-06-10T20:57:47;8.93;;;5.60;;
11865;SDS011;5992;52.744;6.898;2023-06-10T21:01:11;9.43;;;5.40;;
11865;SDS011;5992;52.744;6.898;2023-06-10T21:04:11;6.20;;;5.60;;
11865;SDS011;5992;52.744;6.898;2023-06-10T21:07:23;6.63;;;4.90;;
11865;SDS011;5992;52.744;6.898;2023-06-10T21:10:23;5.50;;;5.00;;
11865;SDS011;5992;52.744;6.898;2023-06-10T21:13:49;6.20;;;5.40;;
11865;SDS011;5992;52.744;6.898;2023-06-10T21:17:01;7.43;;;6.73;;
11865;SDS011;5992;52.744;6.898;2023-06-10T21:20:13;6.10;;;4.83;;
11865;SDS011;5992;52.744;6.898;2023-06-10T21:23:25;5.20;;;4.70;;
11865;SDS011;5992;52.744;6.898;2023-06-10T21:26:38;7.93;;;5.13;;
11865;SDS011;5992;52.744;6.898;2023-06-10T21:29:39;6.17;;;4.13;;
11865;SDS011;5992;52.744;6.898;2023-06-10T21:33:04;4.53;;;4.13;;
11865;SDS011;5992;52.744;6.898;2023-06-10T21:36:04;5.30;;;3.70;;